sensor_id;sensor_type;location;lat;lon;timestamp;temperature;humidity
33269;DHT22;19640;50.944;5.260;2024-01-27T00:01:15;2.70;99.90
33269;DHT22;19640;50.944;5.260;2024-01-27T00:03:41;2.70;99.90
33269;DHT22;19640;50.944;5.260;2024-01-27T00:06:06;2.70;99.90
33269;DHT22;19640;50.944;5.260;2024-01-27T00:08:32;2.80;99.90
33269;DHT22;19640;50.944;5.260;2024-01-27T00:10:58;2.80;99.90
33269;DHT22;19640;50.944;5.260;2024-01-27T00:13:23;2.70;99.90
33269;DHT22;19640;50.944;5.260;2024-01-27T00:15:49;2.80;99.90
33269;DHT22;19640;50.944;5.260;2024-01-27T00:18:15;2.70;99.90
33269;DHT22;19640;50.944;5.260;2024-01-27T00:20:42;2.60;99.90
33269;DHT22;19640;50.944;5.260;2024-01-27T00:23:07;2.60;99.90
33269;DHT22;19640;50.944;5.260;2024-01-27T00:25:33;2.70;99.90
33269;DHT22;19640;50.944;5.260;2024-01-27T00:27:59;2.80;99.90
33269;DHT22;19640;50.944;5.260;2024-01-27T00:30:25;2.60;99.90
33269;DHT22;19640;50.944;5.260;2024-01-27T00:32:51;2.50;99.90
33269;DHT22;19640;50.944;5.260;2024-01-27T00:35:17;2.60;99.90
33269;DHT22;19640;50.944;5.260;2024-01-27T00:37:43;2.40;99.90
33269;DHT22;19640;50.944;5.260;2024-01-27T00:40:12;2.40;99.90
33269;DHT22;19640;50.944;5.260;2024-01-27T00:42:40;2.30;99.90
33269;DHT22;19640;50.944;5.260;2024-01-27T00:45:06;2.40;99.90
33269;DHT22;19640;50.944;5.260;2024-01-27T00:47:32;2.40;99.90
33269;DHT22;19640;50.944;5.260;2024-01-27T00:49:58;2.60;99.90
33269;DHT22;19640;50.944;5.260;2024-01-27T00:52:23;2.50;99.90
33269;DHT22;19640;50.944;5.260;2024-01-27T00:54:49;2.40;99.90
33269;DHT22;19640;50.944;5.260;2024-01-27T00:57:15;2.30;99.90
33269;DHT22;19640;50.944;5.260;2024-01-27T00:59:41;2.40;99.90
33269;DHT22;19640;50.944;5.260;2024-01-27T01:02:07;2.30;99.90
33269;DHT22;19640;50.944;5.260;2024-01-27T01:04:32;2.40;99.90
33269;DHT22;19640;50.944;5.260;2024-01-27T01:06:59;2.50;99.90
33269;DHT22;19640;50.944;5.260;2024-01-27T01:09:24;2.50;99.90
33269;DHT22;19640;50.944;5.260;2024-01-27T01:11:50;2.10;99.90
33269;DHT22;19640;50.944;5.260;2024-01-27T01:14:16;2.20;99.90
33269;DHT22;19640;50.944;5.260;2024-01-27T01:16:42;2.20;99.90
33269;DHT22;19640;50.944;5.260;2024-01-27T01:19:07;2.10;99.90
33269;DHT22;19640;50.944;5.260;2024-01-27T01:21:33;2.00;99.90
33269;DHT22;19640;50.944;5.260;2024-01-27T01:23:59;2.10;99.90
33269;DHT22;19640;50.944;5.260;2024-01-27T01:26:25;2.20;99.90
33269;DHT22;19640;50.944;5.260;2024-01-27T01:28:51;2.30;99.90
33269;DHT22;19640;50.944;5.260;2024-01-27T01:31:17;2.20;99.90
33269;DHT22;19640;50.944;5.260;2024-01-27T01:33:43;2.20;99.90
33269;DHT22;19640;50.944;5.260;2024-01-27T01:36:09;2.20;99.90
33269;DHT22;19640;50.944;5.260;2024-01-27T01:38:35;2.30;99.90
33269;DHT22;19640;50.944;5.260;2024-01-27T01:41:01;2.20;99.90
33269;DHT22;19640;50.944;5.260;2024-01-27T01:43:26;2.20;99.90
33269;DHT22;19640;50.944;5.260;2024-01-27T01:45:52;2.20;99.90
33269;DHT22;19640;50.944;5.260;2024-01-27T01:48:21;2.10;99.90
33269;DHT22;19640;50.944;5.260;2024-01-27T01:50:47;2.10;99.90
33269;DHT22;19640;50.944;5.260;2024-01-27T01:53:13;2.10;99.90
33269;DHT22;19640;50.944;5.260;2024-01-27T01:55:40;2.20;99.90
33269;DHT22;19640;50.944;5.260;2024-01-27T01:58:05;1.80;99.90
33269;DHT22;19640;50.944;5.260;2024-01-27T02:00:32;1.70;99.90
33269;DHT22;19640;50.944;5.260;2024-01-27T02:02:58;1.40;99.90
33269;DHT22;19640;50.944;5.260;2024-01-27T02:05:24;1.60;99.90
33269;DHT22;19640;50.944;5.260;2024-01-27T02:07:50;1.60;99.90
33269;DHT22;19640;50.944;5.260;2024-01-27T02:10:17;1.60;99.90
33269;DHT22;19640;50.944;5.260;2024-01-27T02:12:46;1.70;99.90
33269;DHT22;19640;50.944;5.260;2024-01-27T02:15:12;1.60;99.90
33269;DHT22;19640;50.944;5.260;2024-01-27T02:17:39;1.30;99.90
33269;DHT22;19640;50.944;5.260;2024-01-27T02:20:06;1.40;99.90
33269;DHT22;19640;50.944;5.260;2024-01-27T02:22:35;1.60;99.90
33269;DHT22;19640;50.944;5.260;2024-01-27T02:25:02;1.40;99.90
33269;DHT22;19640;50.944;5.260;2024-01-27T02:27:28;1.40;99.90
33269;DHT22;19640;50.944;5.260;2024-01-27T02:29:53;1.30;99.90
33269;DHT22;19640;50.944;5.260;2024-01-27T02:32:19;1.30;99.90
33269;DHT22;19640;50.944;5.260;2024-01-27T02:34:45;1.40;99.90
33269;DHT22;19640;50.944;5.260;2024-01-27T02:37:12;1.40;99.90
33269;DHT22;19640;50.944;5.260;2024-01-27T02:39:37;1.50;99.90
33269;DHT22;19640;50.944;5.260;2024-01-27T02:42:03;1.00;99.90
33269;DHT22;19640;50.944;5.260;2024-01-27T02:44:29;1.00;99.90
33269;DHT22;19640;50.944;5.260;2024-01-27T02:46:55;1.20;99.90
33269;DHT22;19640;50.944;5.260;2024-01-27T02:49:20;1.20;99.90
33269;DHT22;19640;50.944;5.260;2024-01-27T02:51:46;1.20;99.90
33269;DHT22;19640;50.944;5.260;2024-01-27T02:54:13;1.20;99.90
33269;DHT22;19640;50.944;5.260;2024-01-27T02:56:39;1.30;99.90
33269;DHT22;19640;50.944;5.260;2024-01-27T02:59:05;1.30;99.90
33269;DHT22;19640;50.944;5.260;2024-01-27T03:01:30;1.50;99.90
33269;DHT22;19640;50.944;5.260;2024-01-27T03:03:56;1.50;99.90
33269;DHT22;19640;50.944;5.260;2024-01-27T03:06:21;1.40;99.90
33269;DHT22;19640;50.944;5.260;2024-01-27T03:08:47;1.60;99.90
33269;DHT22;19640;50.944;5.260;2024-01-27T03:11:13;1.50;99.90
33269;DHT22;19640;50.944;5.260;2024-01-27T03:13:39;1.50;99.90
33269;DHT22;19640;50.944;5.260;2024-01-27T03:16:10;1.50;99.90
33269;DHT22;19640;50.944;5.260;2024-01-27T03:18:36;1.40;99.90
33269;DHT22;19640;50.944;5.260;2024-01-27T03:21:03;1.40;99.90
33269;DHT22;19640;50.944;5.260;2024-01-27T03:23:28;1.40;99.90
33269;DHT22;19640;50.944;5.260;2024-01-27T03:25:54;1.30;99.90
33269;DHT22;19640;50.944;5.260;2024-01-27T03:28:20;1.40;99.90
33269;DHT22;19640;50.944;5.260;2024-01-27T03:30:46;1.40;99.90
33269;DHT22;19640;50.944;5.260;2024-01-27T03:33:12;1.20;99.90
33269;DHT22;19640;50.944;5.260;2024-01-27T03:35:39;0.90;99.90
33269;DHT22;19640;50.944;5.260;2024-01-27T03:38:05;0.80;99.90
33269;DHT22;19640;50.944;5.260;2024-01-27T03:40:31;0.80;99.90
33269;DHT22;19640;50.944;5.260;2024-01-27T03:42:57;0.70;99.90
33269;DHT22;19640;50.944;5.260;2024-01-27T03:45:23;0.60;99.90
33269;DHT22;19640;50.944;5.260;2024-01-27T03:47:48;0.80;99.90
33269;DHT22;19640;50.944;5.260;2024-01-27T03:50:14;0.80;99.90
33269;DHT22;19640;50.944;5.260;2024-01-27T03:52:41;0.70;99.90
33269;DHT22;19640;50.944;5.260;2024-01-27T03:55:07;0.70;99.90
33269;DHT22;19640;50.944;5.260;2024-01-27T03:57:32;0.80;99.90
33269;DHT22;19640;50.944;5.260;2024-01-27T03:59:58;0.90;99.90
33269;DHT22;19640;50.944;5.260;2024-01-27T04:02:24;0.90;99.90
33269;DHT22;19640;50.944;5.260;2024-01-27T04:04:49;0.80;99.90
33269;DHT22;19640;50.944;5.260;2024-01-27T04:07:15;0.90;99.90
33269;DHT22;19640;50.944;5.260;2024-01-27T04:09:41;1.10;99.90
33269;DHT22;19640;50.944;5.260;2024-01-27T04:12:07;1.10;99.90
33269;DHT22;19640;50.944;5.260;2024-01-27T04:14:33;0.80;99.90
33269;DHT22;19640;50.944;5.260;2024-01-27T04:16:58;0.70;99.90
33269;DHT22;19640;50.944;5.260;2024-01-27T04:19:24;0.70;99.90
33269;DHT22;19640;50.944;5.260;2024-01-27T04:21:50;0.40;99.90
33269;DHT22;19640;50.944;5.260;2024-01-27T04:24:15;0.20;99.90
33269;DHT22;19640;50.944;5.260;2024-01-27T04:26:41;0.20;99.90
33269;DHT22;19640;50.944;5.260;2024-01-27T04:29:08;0.10;99.90
33269;DHT22;19640;50.944;5.260;2024-01-27T04:31:34;0.20;99.90
33269;DHT22;19640;50.944;5.260;2024-01-27T04:34:04;0.30;99.90
33269;DHT22;19640;50.944;5.260;2024-01-27T04:36:29;0.30;99.90
33269;DHT22;19640;50.944;5.260;2024-01-27T04:38:56;0.30;99.90
33269;DHT22;19640;50.944;5.260;2024-01-27T04:41:21;0.00;99.90
33269;DHT22;19640;50.944;5.260;2024-01-27T04:43:47;0.20;99.90
33269;DHT22;19640;50.944;5.260;2024-01-27T04:46:13;-0.10;99.90
33269;DHT22;19640;50.944;5.260;2024-01-27T04:48:39;0.10;99.90
33269;DHT22;19640;50.944;5.260;2024-01-27T04:51:04;0.10;99.90
33269;DHT22;19640;50.944;5.260;2024-01-27T04:53:30;0.10;99.90
33269;DHT22;19640;50.944;5.260;2024-01-27T04:55:56;0.00;99.90
33269;DHT22;19640;50.944;5.260;2024-01-27T04:58:21;0.00;99.90
33269;DHT22;19640;50.944;5.260;2024-01-27T05:00:47;0.00;99.90
33269;DHT22;19640;50.944;5.260;2024-01-27T05:03:12;0.30;99.90
33269;DHT22;19640;50.944;5.260;2024-01-27T05:05:42;0.20;99.90
33269;DHT22;19640;50.944;5.260;2024-01-27T05:08:09;0.30;99.90
33269;DHT22;19640;50.944;5.260;2024-01-27T05:10:35;0.20;99.90
33269;DHT22;19640;50.944;5.260;2024-01-27T05:13:02;0.30;99.90
33269;DHT22;19640;50.944;5.260;2024-01-27T05:15:28;0.40;99.90
33269;DHT22;19640;50.944;5.260;2024-01-27T05:17:53;0.40;99.90
33269;DHT22;19640;50.944;5.260;2024-01-27T05:20:19;0.20;99.90
33269;DHT22;19640;50.944;5.260;2024-01-27T05:22:45;-0.10;99.90
33269;DHT22;19640;50.944;5.260;2024-01-27T05:25:11;-0.30;99.90
33269;DHT22;19640;50.944;5.260;2024-01-27T05:27:37;-0.50;99.90
33269;DHT22;19640;50.944;5.260;2024-01-27T05:30:07;-0.60;99.90
33269;DHT22;19640;50.944;5.260;2024-01-27T05:32:33;-0.40;99.90
33269;DHT22;19640;50.944;5.260;2024-01-27T05:34:59;-0.70;99.90
33269;DHT22;19640;50.944;5.260;2024-01-27T05:37:24;-0.90;99.90
33269;DHT22;19640;50.944;5.260;2024-01-27T05:39:50;-0.70;99.90
33269;DHT22;19640;50.944;5.260;2024-01-27T05:42:16;-0.80;99.90
33269;DHT22;19640;50.944;5.260;2024-01-27T05:44:41;-0.80;99.90
33269;DHT22;19640;50.944;5.260;2024-01-27T05:47:07;-0.90;99.90
33269;DHT22;19640;50.944;5.260;2024-01-27T05:49:33;-1.00;99.90
33269;DHT22;19640;50.944;5.260;2024-01-27T05:51:59;-1.00;99.90
33269;DHT22;19640;50.944;5.260;2024-01-27T05:54:25;-1.10;99.90
33269;DHT22;19640;50.944;5.260;2024-01-27T05:56:50;-1.00;99.90
33269;DHT22;19640;50.944;5.260;2024-01-27T05:59:16;-0.90;99.90
33269;DHT22;19640;50.944;5.260;2024-01-27T06:01:42;-0.90;99.90
33269;DHT22;19640;50.944;5.260;2024-01-27T06:04:10;-0.90;99.90
33269;DHT22;19640;50.944;5.260;2024-01-27T06:06:40;-1.00;99.90
33269;DHT22;19640;50.944;5.260;2024-01-27T06:09:07;-1.00;99.90
33269;DHT22;19640;50.944;5.260;2024-01-27T06:11:37;-0.90;99.90
33269;DHT22;19640;50.944;5.260;2024-01-27T06:14:03;-0.70;99.90
33269;DHT22;19640;50.944;5.260;2024-01-27T06:16:28;-0.60;99.90
33269;DHT22;19640;50.944;5.260;2024-01-27T06:18:54;-0.70;99.90
33269;DHT22;19640;50.944;5.260;2024-01-27T06:21:20;-0.70;99.90
33269;DHT22;19640;50.944;5.260;2024-01-27T06:23:46;-0.60;99.90
33269;DHT22;19640;50.944;5.260;2024-01-27T06:26:13;-0.40;99.90
33269;DHT22;19640;50.944;5.260;2024-01-27T06:28:39;-0.70;99.90
33269;DHT22;19640;50.944;5.260;2024-01-27T06:31:05;-0.80;99.90
33269;DHT22;19640;50.944;5.260;2024-01-27T06:33:34;-1.00;99.90
33269;DHT22;19640;50.944;5.260;2024-01-27T06:36:00;-1.10;99.90
33269;DHT22;19640;50.944;5.260;2024-01-27T06:38:29;-1.30;99.90
33269;DHT22;19640;50.944;5.260;2024-01-27T06:40:54;-1.40;99.90
33269;DHT22;19640;50.944;5.260;2024-01-27T06:43:20;-1.30;99.90
33269;DHT22;19640;50.944;5.260;2024-01-27T06:45:46;-1.30;99.90
33269;DHT22;19640;50.944;5.260;2024-01-27T06:48:11;-1.50;99.90
33269;DHT22;19640;50.944;5.260;2024-01-27T06:50:37;-1.50;99.90
33269;DHT22;19640;50.944;5.260;2024-01-27T06:53:03;-1.30;99.90
33269;DHT22;19640;50.944;5.260;2024-01-27T06:55:29;-1.20;99.90
33269;DHT22;19640;50.944;5.260;2024-01-27T06:57:54;-1.00;99.90
33269;DHT22;19640;50.944;5.260;2024-01-27T07:00:20;-1.00;99.90
33269;DHT22;19640;50.944;5.260;2024-01-27T07:02:46;-1.10;99.90
33269;DHT22;19640;50.944;5.260;2024-01-27T07:05:12;-1.10;99.90
33269;DHT22;19640;50.944;5.260;2024-01-27T07:07:39;-1.00;99.90
33269;DHT22;19640;50.944;5.260;2024-01-27T07:10:06;-0.90;99.90
33269;DHT22;19640;50.944;5.260;2024-01-27T07:12:33;-0.80;99.90
33269;DHT22;19640;50.944;5.260;2024-01-27T07:14:59;-0.80;99.90
33269;DHT22;19640;50.944;5.260;2024-01-27T07:17:27;-0.70;99.90
33269;DHT22;19640;50.944;5.260;2024-01-27T07:19:52;-0.80;99.90
33269;DHT22;19640;50.944;5.260;2024-01-27T07:22:18;-1.00;99.90
33269;DHT22;19640;50.944;5.260;2024-01-27T07:24:44;-1.10;99.90
33269;DHT22;19640;50.944;5.260;2024-01-27T07:27:12;-1.00;99.90
33269;DHT22;19640;50.944;5.260;2024-01-27T07:29:38;-1.10;99.90
33269;DHT22;19640;50.944;5.260;2024-01-27T07:32:04;-1.10;99.90
33269;DHT22;19640;50.944;5.260;2024-01-27T07:34:30;-1.00;99.90
33269;DHT22;19640;50.944;5.260;2024-01-27T07:36:56;-0.80;99.90
33269;DHT22;19640;50.944;5.260;2024-01-27T07:39:22;-0.60;99.90
33269;DHT22;19640;50.944;5.260;2024-01-27T07:41:48;-0.50;99.90
33269;DHT22;19640;50.944;5.260;2024-01-27T07:44:14;-0.50;99.90
33269;DHT22;19640;50.944;5.260;2024-01-27T07:46:41;-0.30;99.90
33269;DHT22;19640;50.944;5.260;2024-01-27T07:49:08;-0.30;99.90
33269;DHT22;19640;50.944;5.260;2024-01-27T07:51:34;-0.40;99.90
33269;DHT22;19640;50.944;5.260;2024-01-27T07:54:00;-0.40;99.90
33269;DHT22;19640;50.944;5.260;2024-01-27T07:56:26;-0.50;99.90
33269;DHT22;19640;50.944;5.260;2024-01-27T07:58:52;-0.50;99.90
33269;DHT22;19640;50.944;5.260;2024-01-27T08:01:19;-0.60;99.90
33269;DHT22;19640;50.944;5.260;2024-01-27T08:03:45;-0.70;99.90
33269;DHT22;19640;50.944;5.260;2024-01-27T08:06:15;-0.70;99.90
33269;DHT22;19640;50.944;5.260;2024-01-27T08:08:45;-0.70;99.90
33269;DHT22;19640;50.944;5.260;2024-01-27T08:11:11;-0.50;99.90
33269;DHT22;19640;50.944;5.260;2024-01-27T08:13:37;-0.40;99.90
33269;DHT22;19640;50.944;5.260;2024-01-27T08:16:03;-0.50;99.90
33269;DHT22;19640;50.944;5.260;2024-01-27T08:18:30;-0.60;99.90
33269;DHT22;19640;50.944;5.260;2024-01-27T08:20:56;-0.80;99.90
33269;DHT22;19640;50.944;5.260;2024-01-27T08:23:23;-0.70;99.90
33269;DHT22;19640;50.944;5.260;2024-01-27T08:25:49;-0.60;99.90
33269;DHT22;19640;50.944;5.260;2024-01-27T08:28:18;-0.40;99.90
33269;DHT22;19640;50.944;5.260;2024-01-27T08:30:44;-0.30;99.90
33269;DHT22;19640;50.944;5.260;2024-01-27T08:33:09;-0.10;99.90
33269;DHT22;19640;50.944;5.260;2024-01-27T08:35:35;0.00;99.90
33269;DHT22;19640;50.944;5.260;2024-01-27T08:38:01;0.40;99.90
33269;DHT22;19640;50.944;5.260;2024-01-27T08:40:29;0.70;99.90
33269;DHT22;19640;50.944;5.260;2024-01-27T08:42:54;0.90;99.90
33269;DHT22;19640;50.944;5.260;2024-01-27T08:45:20;1.20;99.90
33269;DHT22;19640;50.944;5.260;2024-01-27T08:47:46;1.30;99.90
33269;DHT22;19640;50.944;5.260;2024-01-27T08:50:12;1.00;99.90
33269;DHT22;19640;50.944;5.260;2024-01-27T08:52:37;0.90;99.90
33269;DHT22;19640;50.944;5.260;2024-01-27T08:55:03;0.80;99.90
33269;DHT22;19640;50.944;5.260;2024-01-27T08:57:29;0.80;99.90
33269;DHT22;19640;50.944;5.260;2024-01-27T08:59:55;1.10;99.90
33269;DHT22;19640;50.944;5.260;2024-01-27T09:02:20;1.40;99.90
33269;DHT22;19640;50.944;5.260;2024-01-27T09:04:46;1.60;99.90
33269;DHT22;19640;50.944;5.260;2024-01-27T09:07:12;1.70;99.90
33269;DHT22;19640;50.944;5.260;2024-01-27T09:09:37;1.70;99.90
33269;DHT22;19640;50.944;5.260;2024-01-27T09:12:06;1.80;99.90
33269;DHT22;19640;50.944;5.260;2024-01-27T09:14:32;1.80;99.90
33269;DHT22;19640;50.944;5.260;2024-01-27T09:17:01;1.60;99.90
33269;DHT22;19640;50.944;5.260;2024-01-27T09:19:28;1.60;99.90
33269;DHT22;19640;50.944;5.260;2024-01-27T09:21:53;1.80;99.90
33269;DHT22;19640;50.944;5.260;2024-01-27T09:24:19;1.90;99.90
33269;DHT22;19640;50.944;5.260;2024-01-27T09:26:45;2.10;99.90
33269;DHT22;19640;50.944;5.260;2024-01-27T09:29:11;2.30;99.90
33269;DHT22;19640;50.944;5.260;2024-01-27T09:31:36;2.40;99.90
33269;DHT22;19640;50.944;5.260;2024-01-27T09:34:02;2.50;99.90
33269;DHT22;19640;50.944;5.260;2024-01-27T09:36:28;2.70;99.90
33269;DHT22;19640;50.944;5.260;2024-01-27T09:38:54;2.90;99.90
33269;DHT22;19640;50.944;5.260;2024-01-27T09:41:30;3.10;99.90
33269;DHT22;19640;50.944;5.260;2024-01-27T09:44:00;3.20;99.90
33269;DHT22;19640;50.944;5.260;2024-01-27T09:46:27;3.30;99.90
33269;DHT22;19640;50.944;5.260;2024-01-27T09:48:53;3.20;99.90
33269;DHT22;19640;50.944;5.260;2024-01-27T09:51:19;3.30;99.90
33269;DHT22;19640;50.944;5.260;2024-01-27T09:53:45;3.30;99.90
33269;DHT22;19640;50.944;5.260;2024-01-27T09:56:12;3.50;99.90
33269;DHT22;19640;50.944;5.260;2024-01-27T09:58:44;3.50;99.90
33269;DHT22;19640;50.944;5.260;2024-01-27T10:01:10;3.60;99.90
33269;DHT22;19640;50.944;5.260;2024-01-27T10:03:38;3.70;99.90
33269;DHT22;19640;50.944;5.260;2024-01-27T10:06:08;3.90;99.90
33269;DHT22;19640;50.944;5.260;2024-01-27T10:08:34;4.00;99.90
33269;DHT22;19640;50.944;5.260;2024-01-27T10:11:08;4.20;99.90
33269;DHT22;19640;50.944;5.260;2024-01-27T10:13:35;4.30;99.90
33269;DHT22;19640;50.944;5.260;2024-01-27T10:16:08;4.40;99.90
33269;DHT22;19640;50.944;5.260;2024-01-27T10:18:34;4.60;99.90
33269;DHT22;19640;50.944;5.260;2024-01-27T10:21:21;4.70;99.90
33269;DHT22;19640;50.944;5.260;2024-01-27T10:23:48;4.90;99.90
33269;DHT22;19640;50.944;5.260;2024-01-27T10:26:14;4.80;99.90
33269;DHT22;19640;50.944;5.260;2024-01-27T10:28:40;4.90;99.90
33269;DHT22;19640;50.944;5.260;2024-01-27T10:31:09;5.00;99.90
33269;DHT22;19640;50.944;5.260;2024-01-27T10:33:34;5.10;99.90
33269;DHT22;19640;50.944;5.260;2024-01-27T10:36:00;5.20;99.90
33269;DHT22;19640;50.944;5.260;2024-01-27T10:38:39;5.30;99.90
33269;DHT22;19640;50.944;5.260;2024-01-27T10:41:08;5.40;99.90
33269;DHT22;19640;50.944;5.260;2024-01-27T10:43:38;5.50;99.90
33269;DHT22;19640;50.944;5.260;2024-01-27T10:46:08;5.50;99.90
33269;DHT22;19640;50.944;5.260;2024-01-27T10:48:35;5.60;99.90
33269;DHT22;19640;50.944;5.260;2024-01-27T10:51:08;5.70;99.90
33269;DHT22;19640;50.944;5.260;2024-01-27T10:53:36;5.80;99.90
33269;DHT22;19640;50.944;5.260;2024-01-27T10:56:04;5.80;99.90
33269;DHT22;19640;50.944;5.260;2024-01-27T10:58:35;5.90;99.90
33269;DHT22;19640;50.944;5.260;2024-01-27T11:01:10;6.20;99.90
33269;DHT22;19640;50.944;5.260;2024-01-27T11:03:38;6.30;99.90
33269;DHT22;19640;50.944;5.260;2024-01-27T11:06:07;6.40;99.90
33269;DHT22;19640;50.944;5.260;2024-01-27T11:08:34;6.60;99.90
33269;DHT22;19640;50.944;5.260;2024-01-27T11:11:01;6.60;99.90
33269;DHT22;19640;50.944;5.260;2024-01-27T11:13:29;6.60;99.90
33269;DHT22;19640;50.944;5.260;2024-01-27T11:15:56;6.50;99.90
33269;DHT22;19640;50.944;5.260;2024-01-27T11:18:21;6.40;99.90
33269;DHT22;19640;50.944;5.260;2024-01-27T11:20:47;6.50;99.90
33269;DHT22;19640;50.944;5.260;2024-01-27T11:23:13;6.70;99.90
33269;DHT22;19640;50.944;5.260;2024-01-27T11:25:40;6.70;99.90
33269;DHT22;19640;50.944;5.260;2024-01-27T11:28:14;6.90;99.90
33269;DHT22;19640;50.944;5.260;2024-01-27T11:30:44;6.90;99.90
33269;DHT22;19640;50.944;5.260;2024-01-27T11:33:10;6.90;99.90
33269;DHT22;19640;50.944;5.260;2024-01-27T11:35:36;6.80;99.90
33269;DHT22;19640;50.944;5.260;2024-01-27T11:38:02;6.70;99.90
33269;DHT22;19640;50.944;5.260;2024-01-27T11:40:28;6.70;99.90
33269;DHT22;19640;50.944;5.260;2024-01-27T11:43:01;6.80;99.90
33269;DHT22;19640;50.944;5.260;2024-01-27T11:45:28;6.90;99.90
33269;DHT22;19640;50.944;5.260;2024-01-27T11:47:55;6.90;99.90
33269;DHT22;19640;50.944;5.260;2024-01-27T11:50:22;7.00;99.90
33269;DHT22;19640;50.944;5.260;2024-01-27T11:52:47;7.10;99.90
33269;DHT22;19640;50.944;5.260;2024-01-27T11:55:13;7.20;99.90
33269;DHT22;19640;50.944;5.260;2024-01-27T11:57:41;7.40;99.90
33269;DHT22;19640;50.944;5.260;2024-01-27T12:00:08;7.30;99.90
33269;DHT22;19640;50.944;5.260;2024-01-27T12:02:37;7.50;99.90
33269;DHT22;19640;50.944;5.260;2024-01-27T12:05:08;7.30;99.90
33269;DHT22;19640;50.944;5.260;2024-01-27T12:07:33;7.30;99.90
33269;DHT22;19640;50.944;5.260;2024-01-27T12:09:59;7.30;99.90
33269;DHT22;19640;50.944;5.260;2024-01-27T12:12:25;7.30;99.90
33269;DHT22;19640;50.944;5.260;2024-01-27T12:14:51;7.30;99.90
33269;DHT22;19640;50.944;5.260;2024-01-27T12:17:18;7.20;99.90
33269;DHT22;19640;50.944;5.260;2024-01-27T12:19:51;7.30;99.90
33269;DHT22;19640;50.944;5.260;2024-01-27T12:22:28;7.30;99.90
33269;DHT22;19640;50.944;5.260;2024-01-27T12:25:08;7.50;99.90
33269;DHT22;19640;50.944;5.260;2024-01-27T12:27:35;7.50;99.90
33269;DHT22;19640;50.944;5.260;2024-01-27T12:30:01;7.60;99.90
33269;DHT22;19640;50.944;5.260;2024-01-27T12:32:27;7.60;99.90
33269;DHT22;19640;50.944;5.260;2024-01-27T12:34:53;7.80;99.90
33269;DHT22;19640;50.944;5.260;2024-01-27T12:37:21;7.90;99.90
33269;DHT22;19640;50.944;5.260;2024-01-27T12:39:47;8.00;99.90
33269;DHT22;19640;50.944;5.260;2024-01-27T12:42:16;8.10;99.90
33269;DHT22;19640;50.944;5.260;2024-01-27T12:44:43;8.20;99.90
33269;DHT22;19640;50.944;5.260;2024-01-27T12:47:12;8.30;99.90
33269;DHT22;19640;50.944;5.260;2024-01-27T12:49:39;8.20;99.90
33269;DHT22;19640;50.944;5.260;2024-01-27T12:52:05;8.20;99.90
33269;DHT22;19640;50.944;5.260;2024-01-27T12:54:31;8.20;99.90
33269;DHT22;19640;50.944;5.260;2024-01-27T12:56:57;8.20;99.90
33269;DHT22;19640;50.944;5.260;2024-01-27T12:59:23;8.10;99.90
33269;DHT22;19640;50.944;5.260;2024-01-27T13:01:49;8.00;99.90
33269;DHT22;19640;50.944;5.260;2024-01-27T13:04:15;8.10;99.90
33269;DHT22;19640;50.944;5.260;2024-01-27T13:06:41;8.00;99.90
33269;DHT22;19640;50.944;5.260;2024-01-27T13:09:07;8.00;99.90
33269;DHT22;19640;50.944;5.260;2024-01-27T13:11:37;8.00;99.90
33269;DHT22;19640;50.944;5.260;2024-01-27T13:14:02;8.10;99.90
33269;DHT22;19640;50.944;5.260;2024-01-27T13:16:28;8.10;99.90
33269;DHT22;19640;50.944;5.260;2024-01-27T13:18:54;8.20;99.90
33269;DHT22;19640;50.944;5.260;2024-01-27T13:21:19;8.30;99.90
33269;DHT22;19640;50.944;5.260;2024-01-27T13:23:45;8.30;99.90
33269;DHT22;19640;50.944;5.260;2024-01-27T13:26:11;8.20;99.90
33269;DHT22;19640;50.944;5.260;2024-01-27T13:28:36;8.00;99.90
33269;DHT22;19640;50.944;5.260;2024-01-27T13:31:02;7.90;99.90
33269;DHT22;19640;50.944;5.260;2024-01-27T13:33:28;7.80;99.90
33269;DHT22;19640;50.944;5.260;2024-01-27T13:35:54;7.90;99.90
33269;DHT22;19640;50.944;5.260;2024-01-27T13:38:20;7.90;99.90
33269;DHT22;19640;50.944;5.260;2024-01-27T13:40:49;8.00;99.90
33269;DHT22;19640;50.944;5.260;2024-01-27T13:43:15;8.10;99.90
33269;DHT22;19640;50.944;5.260;2024-01-27T13:45:41;8.00;99.90
33269;DHT22;19640;50.944;5.260;2024-01-27T13:48:07;7.80;99.90
33269;DHT22;19640;50.944;5.260;2024-01-27T13:50:33;7.80;99.90
33269;DHT22;19640;50.944;5.260;2024-01-27T13:52:59;7.80;99.90
33269;DHT22;19640;50.944;5.260;2024-01-27T13:55:25;7.90;99.90
33269;DHT22;19640;50.944;5.260;2024-01-27T13:57:50;8.10;99.90
33269;DHT22;19640;50.944;5.260;2024-01-27T14:00:16;8.10;99.90
33269;DHT22;19640;50.944;5.260;2024-01-27T14:02:43;8.00;99.90
33269;DHT22;19640;50.944;5.260;2024-01-27T14:05:09;8.10;99.90
33269;DHT22;19640;50.944;5.260;2024-01-27T14:07:35;8.10;99.90
33269;DHT22;19640;50.944;5.260;2024-01-27T14:10:01;7.90;99.90
33269;DHT22;19640;50.944;5.260;2024-01-27T14:12:27;8.00;99.90
33269;DHT22;19640;50.944;5.260;2024-01-27T14:14:53;8.00;99.90
33269;DHT22;19640;50.944;5.260;2024-01-27T14:17:19;7.90;99.90
33269;DHT22;19640;50.944;5.260;2024-01-27T14:19:46;8.00;99.90
33269;DHT22;19640;50.944;5.260;2024-01-27T14:22:12;8.10;99.90
33269;DHT22;19640;50.944;5.260;2024-01-27T14:24:38;8.20;99.90
33269;DHT22;19640;50.944;5.260;2024-01-27T14:27:06;7.90;99.90
33269;DHT22;19640;50.944;5.260;2024-01-27T14:29:33;7.90;99.90
33269;DHT22;19640;50.944;5.260;2024-01-27T14:32:00;8.00;99.90
33269;DHT22;19640;50.944;5.260;2024-01-27T14:34:26;8.20;99.90
33269;DHT22;19640;50.944;5.260;2024-01-27T14:36:52;8.30;99.90
33269;DHT22;19640;50.944;5.260;2024-01-27T14:39:20;8.40;99.90
33269;DHT22;19640;50.944;5.260;2024-01-27T14:41:46;8.40;99.90
33269;DHT22;19640;50.944;5.260;2024-01-27T14:44:11;8.30;99.90
33269;DHT22;19640;50.944;5.260;2024-01-27T14:46:37;8.50;99.90
33269;DHT22;19640;50.944;5.260;2024-01-27T14:49:06;8.40;99.90
33269;DHT22;19640;50.944;5.260;2024-01-27T14:51:34;8.30;99.90
33269;DHT22;19640;50.944;5.260;2024-01-27T14:54:00;8.20;99.90
33269;DHT22;19640;50.944;5.260;2024-01-27T14:56:30;8.20;99.90
33269;DHT22;19640;50.944;5.260;2024-01-27T14:58:56;8.10;99.90
33269;DHT22;19640;50.944;5.260;2024-01-27T15:01:22;8.10;99.90
33269;DHT22;19640;50.944;5.260;2024-01-27T15:03:48;8.30;99.90
33269;DHT22;19640;50.944;5.260;2024-01-27T15:06:14;8.40;99.90
33269;DHT22;19640;50.944;5.260;2024-01-27T15:08:40;8.50;99.90
33269;DHT22;19640;50.944;5.260;2024-01-27T15:11:06;8.30;99.90
33269;DHT22;19640;50.944;5.260;2024-01-27T15:13:32;8.20;99.90
33269;DHT22;19640;50.944;5.260;2024-01-27T15:15:58;7.90;99.90
33269;DHT22;19640;50.944;5.260;2024-01-27T15:18:24;8.20;99.90
33269;DHT22;19640;50.944;5.260;2024-01-27T15:20:50;8.40;99.90
33269;DHT22;19640;50.944;5.260;2024-01-27T15:23:16;8.20;99.90
33269;DHT22;19640;50.944;5.260;2024-01-27T15:25:42;8.00;99.90
33269;DHT22;19640;50.944;5.260;2024-01-27T15:28:09;7.90;99.90
33269;DHT22;19640;50.944;5.260;2024-01-27T15:30:35;8.00;99.90
33269;DHT22;19640;50.944;5.260;2024-01-27T15:33:00;7.80;99.90
33269;DHT22;19640;50.944;5.260;2024-01-27T15:35:26;7.70;99.90
33269;DHT22;19640;50.944;5.260;2024-01-27T15:37:57;7.60;99.90